sensor_id;sensor_type;location;lat;lon;timestamp;P1;durP1;ratioP1;P2;durP2;ratioP2
20154;SDS011;10238;49.556;10.956;2023-04-15T00:00:29;4.93;;;3.90;;
20154;SDS011;10238;49.556;10.956;2023-04-15T00:03:18;5.35;;;4.25;;
20154;SDS011;10238;49.556;10.956;2023-04-15T00:06:07;6.18;;;4.50;;
20154;SDS011;10238;49.556;10.956;2023-04-15T00:08:57;4.95;;;4.32;;
20154;SDS011;10238;49.556;10.956;2023-04-15T00:11:46;4.50;;;4.03;;
20154;SDS011;10238;49.556;10.956;2023-04-15T00:14:34;5.90;;;4.28;;
20154;SDS011;10238;49.556;10.956;2023-04-15T00:17:22;5.18;;;4.47;;
20154;SDS011;10238;49.556;10.956;2023-04-15T00:20:10;5.05;;;4.00;;
20154;SDS011;10238;49.556;10.956;2023-04-15T00:22:59;4.15;;;3.75;;
20154;SDS011;10238;49.556;10.956;2023-04-15T00:25:50;6.95;;;3.72;;
20154;SDS011;10238;49.556;10.956;2023-04-15T00:28:38;4.13;;;3.60;;
20154;SDS011;10238;49.556;10.956;2023-04-15T00:31:25;4.13;;;3.50;;
20154;SDS011;10238;49.556;10.956;2023-04-15T00:34:13;4.90;;;3.45;;
20154;SDS011;10238;49.556;10.956;2023-04-15T00:37:01;3.65;;;3.30;;
20154;SDS011;10238;49.556;10.956;2023-04-15T00:39:49;3.42;;;3.13;;
20154;SDS011;10238;49.556;10.956;2023-04-15T00:42:39;6.20;;;4.00;;
20154;SDS011;10238;49.556;10.956;2023-04-15T00:45:27;3.38;;;3.08;;
20154;SDS011;10238;49.556;10.956;2023-04-15T00:48:15;4.00;;;2.80;;
20154;SDS011;10238;49.556;10.956;2023-04-15T00:51:04;3.20;;;2.83;;
20154;SDS011;10238;49.556;10.956;2023-04-15T00:53:54;3.67;;;3.08;;
20154;SDS011;10238;49.556;10.956;2023-04-15T00:56:42;4.47;;;3.35;;
20154;SDS011;10238;49.556;10.956;2023-04-15T00:59:31;3.92;;;3.33;;
20154;SDS011;10238;49.556;10.956;2023-04-15T01:02:19;3.95;;;3.10;;
20154;SDS011;10238;49.556;10.956;2023-04-15T01:05:09;3.97;;;3.15;;
20154;SDS011;10238;49.556;10.956;2023-04-15T01:07:57;3.30;;;2.90;;
20154;SDS011;10238;49.556;10.956;2023-04-15T01:10:45;3.60;;;3.15;;
20154;SDS011;10238;49.556;10.956;2023-04-15T01:13:33;3.28;;;3.00;;
20154;SDS011;10238;49.556;10.956;2023-04-15T01:16:24;3.75;;;3.10;;
20154;SDS011;10238;49.556;10.956;2023-04-15T01:19:13;4.85;;;3.58;;
20154;SDS011;10238;49.556;10.956;2023-04-15T01:22:03;3.50;;;3.20;;
20154;SDS011;10238;49.556;10.956;2023-04-15T01:24:54;4.30;;;3.35;;
20154;SDS011;10238;49.556;10.956;2023-04-15T01:27:54;3.45;;;2.97;;
20154;SDS011;10238;49.556;10.956;2023-04-15T01:30:42;3.97;;;3.35;;
20154;SDS011;10238;49.556;10.956;2023-04-15T01:33:30;4.53;;;3.38;;
20154;SDS011;10238;49.556;10.956;2023-04-15T01:36:17;4.28;;;3.70;;
20154;SDS011;10238;49.556;10.956;2023-04-15T01:39:05;3.67;;;3.05;;
20154;SDS011;10238;49.556;10.956;2023-04-15T01:41:53;4.15;;;3.30;;
20154;SDS011;10238;49.556;10.956;2023-04-15T01:44:43;4.88;;;3.40;;
20154;SDS011;10238;49.556;10.956;2023-04-15T01:47:31;4.00;;;3.17;;
20154;SDS011;10238;49.556;10.956;2023-04-15T01:50:19;4.32;;;3.35;;
20154;SDS011;10238;49.556;10.956;2023-04-15T01:53:07;4.30;;;3.90;;
20154;SDS011;10238;49.556;10.956;2023-04-15T01:55:55;4.35;;;3.40;;
20154;SDS011;10238;49.556;10.956;2023-04-15T01:58:43;4.10;;;3.70;;
20154;SDS011;10238;49.556;10.956;2023-04-15T02:01:32;4.03;;;3.63;;
20154;SDS011;10238;49.556;10.956;2023-04-15T02:04:20;4.20;;;3.58;;
20154;SDS011;10238;49.556;10.956;2023-04-15T02:07:08;4.47;;;3.63;;
20154;SDS011;10238;49.556;10.956;2023-04-15T02:09:56;3.97;;;3.67;;
20154;SDS011;10238;49.556;10.956;2023-04-15T02:13:00;3.60;;;3.30;;
20154;SDS011;10238;49.556;10.956;2023-04-15T02:15:51;3.80;;;3.40;;
20154;SDS011;10238;49.556;10.956;2023-04-15T02:18:48;4.20;;;3.80;;
20154;SDS011;10238;49.556;10.956;2023-04-15T02:21:38;4.80;;;4.03;;
20154;SDS011;10238;49.556;10.956;2023-04-15T02:24:30;5.78;;;3.70;;
20154;SDS011;10238;49.556;10.956;2023-04-15T02:27:24;4.05;;;3.67;;
20154;SDS011;10238;49.556;10.956;2023-04-15T02:30:15;3.97;;;3.58;;
20154;SDS011;10238;49.556;10.956;2023-04-15T02:33:07;3.60;;;3.30;;
20154;SDS011;10238;49.556;10.956;2023-04-15T02:36:00;4.22;;;3.63;;
20154;SDS011;10238;49.556;10.956;2023-04-15T02:39:03;3.20;;;3.00;;
20154;SDS011;10238;49.556;10.956;2023-04-15T02:41:52;3.20;;;2.90;;
20154;SDS011;10238;49.556;10.956;2023-04-15T02:44:46;5.25;;;3.20;;
20154;SDS011;10238;49.556;10.956;2023-04-15T02:47:37;4.15;;;2.90;;
20154;SDS011;10238;49.556;10.956;2023-04-15T02:50:29;4.97;;;2.97;;
20154;SDS011;10238;49.556;10.956;2023-04-15T02:53:27;4.75;;;3.00;;
20154;SDS011;10238;49.556;10.956;2023-04-15T02:56:31;3.28;;;2.85;;
20154;SDS011;10238;49.556;10.956;2023-04-15T02:59:27;3.95;;;2.75;;
20154;SDS011;10238;49.556;10.956;2023-04-15T03:02:19;3.08;;;2.78;;
20154;SDS011;10238;49.556;10.956;2023-04-15T03:05:13;3.00;;;2.70;;
20154;SDS011;10238;49.556;10.956;2023-04-15T03:08:06;3.75;;;2.80;;
20154;SDS011;10238;49.556;10.956;2023-04-15T03:10:58;3.22;;;2.88;;
20154;SDS011;10238;49.556;10.956;2023-04-15T03:13:47;4.22;;;3.08;;
20154;SDS011;10238;49.556;10.956;2023-04-15T03:16:37;4.43;;;2.70;;
20154;SDS011;10238;49.556;10.956;2023-04-15T03:19:29;4.20;;;2.80;;
20154;SDS011;10238;49.556;10.956;2023-04-15T03:22:20;3.45;;;2.80;;
20154;SDS011;10238;49.556;10.956;2023-04-15T03:25:11;3.13;;;2.83;;
20154;SDS011;10238;49.556;10.956;2023-04-15T03:28:03;3.22;;;2.72;;
20154;SDS011;10238;49.556;10.956;2023-04-15T03:30:51;3.63;;;2.72;;
20154;SDS011;10238;49.556;10.956;2023-04-15T03:34:00;3.85;;;2.72;;
20154;SDS011;10238;49.556;10.956;2023-04-15T03:36:54;4.82;;;3.28;;
20154;SDS011;10238;49.556;10.956;2023-04-15T03:39:47;4.28;;;3.13;;
20154;SDS011;10238;49.556;10.956;2023-04-15T03:42:46;3.28;;;2.90;;
20154;SDS011;10238;49.556;10.956;2023-04-15T03:46:00;3.33;;;2.85;;
20154;SDS011;10238;49.556;10.956;2023-04-15T03:49:20;4.88;;;3.72;;
20154;SDS011;10238;49.556;10.956;2023-04-15T03:52:21;3.33;;;3.03;;
20154;SDS011;10238;49.556;10.956;2023-04-15T03:55:24;4.13;;;3.28;;
20154;SDS011;10238;49.556;10.956;2023-04-15T03:58:29;4.68;;;3.80;;
20154;SDS011;10238;49.556;10.956;2023-04-15T04:01:32;4.28;;;3.83;;
20154;SDS011;10238;49.556;10.956;2023-04-15T04:04:45;3.97;;;3.53;;
20154;SDS011;10238;49.556;10.956;2023-04-15T04:07:42;4.03;;;3.58;;
20154;SDS011;10238;49.556;10.956;2023-04-15T04:10:48;5.68;;;4.20;;
20154;SDS011;10238;49.556;10.956;2023-04-15T04:13:43;4.50;;;4.10;;
20154;SDS011;10238;49.556;10.956;2023-04-15T04:16:46;6.68;;;4.45;;
20154;SDS011;10238;49.556;10.956;2023-04-15T04:20:10;6.13;;;4.40;;
20154;SDS011;10238;49.556;10.956;2023-04-15T04:23:08;7.95;;;3.75;;
20154;SDS011;10238;49.556;10.956;2023-04-15T04:26:34;4.93;;;3.92;;
20154;SDS011;10238;49.556;10.956;2023-04-15T04:29:37;6.18;;;3.90;;
20154;SDS011;10238;49.556;10.956;2023-04-15T04:32:41;5.00;;;4.22;;
20154;SDS011;10238;49.556;10.956;2023-04-15T04:35:41;5.57;;;4.47;;
20154;SDS011;10238;49.556;10.956;2023-04-15T04:38:44;5.40;;;4.22;;
20154;SDS011;10238;49.556;10.956;2023-04-15T04:41:38;4.72;;;4.05;;
20154;SDS011;10238;49.556;10.956;2023-04-15T04:44:49;7.10;;;4.20;;
20154;SDS011;10238;49.556;10.956;2023-04-15T04:48:00;4.63;;;3.97;;
20154;SDS011;10238;49.556;10.956;2023-04-15T04:51:02;4.75;;;3.85;;
20154;SDS011;10238;49.556;10.956;2023-04-15T04:54:01;6.78;;;4.32;;
20154;SDS011;10238;49.556;10.956;2023-04-15T04:56:59;4.85;;;4.03;;
20154;SDS011;10238;49.556;10.956;2023-04-15T04:59:57;5.68;;;4.68;;
20154;SDS011;10238;49.556;10.956;2023-04-15T05:02:49;6.43;;;4.32;;
20154;SDS011;10238;49.556;10.956;2023-04-15T05:05:47;4.32;;;3.53;;
20154;SDS011;10238;49.556;10.956;2023-04-15T05:08:57;6.70;;;4.07;;
20154;SDS011;10238;49.556;10.956;2023-04-15T05:11:58;4.85;;;4.35;;
20154;SDS011;10238;49.556;10.956;2023-04-15T05:15:13;6.32;;;5.05;;
20154;SDS011;10238;49.556;10.956;2023-04-15T05:18:18;6.25;;;4.47;;
20154;SDS011;10238;49.556;10.956;2023-04-15T05:21:59;5.68;;;4.20;;
20154;SDS011;10238;49.556;10.956;2023-04-15T05:25:13;4.93;;;4.15;;
20154;SDS011;10238;49.556;10.956;2023-04-15T05:28:22;4.72;;;4.03;;
20154;SDS011;10238;49.556;10.956;2023-04-15T05:31:31;5.63;;;4.10;;
20154;SDS011;10238;49.556;10.956;2023-04-15T05:34:25;7.97;;;4.43;;
20154;SDS011;10238;49.556;10.956;2023-04-15T05:37:35;6.05;;;4.60;;
20154;SDS011;10238;49.556;10.956;2023-04-15T05:40:49;7.13;;;4.15;;
20154;SDS011;10238;49.556;10.956;2023-04-15T05:43:57;7.25;;;4.68;;
20154;SDS011;10238;49.556;10.956;2023-04-15T05:47:15;6.53;;;4.65;;
20154;SDS011;10238;49.556;10.956;2023-04-15T05:50:19;7.03;;;4.72;;
20154;SDS011;10238;49.556;10.956;2023-04-15T05:53:33;5.95;;;4.53;;
20154;SDS011;10238;49.556;10.956;2023-04-15T05:56:29;6.65;;;5.28;;
20154;SDS011;10238;49.556;10.956;2023-04-15T05:59:46;8.90;;;5.10;;
20154;SDS011;10238;49.556;10.956;2023-04-15T06:06:11;6.63;;;5.00;;
20154;SDS011;10238;49.556;10.956;2023-04-15T06:09:08;9.38;;;5.03;;
20154;SDS011;10238;49.556;10.956;2023-04-15T06:11:59;8.48;;;5.72;;
20154;SDS011;10238;49.556;10.956;2023-04-15T06:15:03;7.13;;;5.15;;
20154;SDS011;10238;49.556;10.956;2023-04-15T06:18:08;6.20;;;4.95;;
20154;SDS011;10238;49.556;10.956;2023-04-15T06:21:16;7.00;;;4.97;;
20154;SDS011;10238;49.556;10.956;2023-04-15T06:24:18;9.75;;;5.03;;
20154;SDS011;10238;49.556;10.956;2023-04-15T06:27:17;6.07;;;4.97;;
20154;SDS011;10238;49.556;10.956;2023-04-15T06:30:19;6.57;;;4.60;;
20154;SDS011;10238;49.556;10.956;2023-04-15T06:33:19;5.97;;;4.40;;
20154;SDS011;10238;49.556;10.956;2023-04-15T06:36:12;7.00;;;4.47;;
20154;SDS011;10238;49.556;10.956;2023-04-15T06:39:13;7.97;;;4.97;;
20154;SDS011;10238;49.556;10.956;2023-04-15T06:42:08;6.93;;;5.00;;
20154;SDS011;10238;49.556;10.956;2023-04-15T06:45:01;6.68;;;4.70;;
20154;SDS011;10238;49.556;10.956;2023-04-15T06:47:55;7.55;;;4.72;;
20154;SDS011;10238;49.556;10.956;2023-04-15T06:51:02;10.00;;;5.55;;
20154;SDS011;10238;49.556;10.956;2023-04-15T06:53:57;7.60;;;5.22;;
20154;SDS011;10238;49.556;10.956;2023-04-15T06:56:57;8.25;;;6.10;;
20154;SDS011;10238;49.556;10.956;2023-04-15T06:59:59;8.90;;;5.80;;
20154;SDS011;10238;49.556;10.956;2023-04-15T07:06:05;8.80;;;5.80;;
20154;SDS011;10238;49.556;10.956;2023-04-15T07:09:26;7.78;;;5.93;;
20154;SDS011;10238;49.556;10.956;2023-04-15T07:12:29;6.90;;;5.22;;
20154;SDS011;10238;49.556;10.956;2023-04-15T07:15:41;8.15;;;5.97;;
20154;SDS011;10238;49.556;10.956;2023-04-15T07:18:35;7.53;;;5.68;;
20154;SDS011;10238;49.556;10.956;2023-04-15T07:21:36;8.75;;;5.60;;
20154;SDS011;10238;49.556;10.956;2023-04-15T07:24:33;10.27;;;5.85;;
20154;SDS011;10238;49.556;10.956;2023-04-15T07:27:31;6.38;;;5.30;;
20154;SDS011;10238;49.556;10.956;2023-04-15T07:30:42;6.80;;;5.15;;
20154;SDS011;10238;49.556;10.956;2023-04-15T07:33:38;6.78;;;5.03;;
20154;SDS011;10238;49.556;10.956;2023-04-15T07:36:31;6.80;;;5.10;;
20154;SDS011;10238;49.556;10.956;2023-04-15T07:39:41;6.28;;;4.53;;
20154;SDS011;10238;49.556;10.956;2023-04-15T07:42:47;8.15;;;5.47;;
20154;SDS011;10238;49.556;10.956;2023-04-15T07:45:40;6.88;;;5.05;;
20154;SDS011;10238;49.556;10.956;2023-04-15T07:48:44;4.93;;;4.38;;
20154;SDS011;10238;49.556;10.956;2023-04-15T07:51:53;5.00;;;4.50;;
20154;SDS011;10238;49.556;10.956;2023-04-15T07:54:50;6.40;;;4.22;;
20154;SDS011;10238;49.556;10.956;2023-04-15T07:57:47;5.00;;;4.13;;
20154;SDS011;10238;49.556;10.956;2023-04-15T08:00:40;5.80;;;4.50;;
20154;SDS011;10238;49.556;10.956;2023-04-15T08:03:56;5.63;;;3.70;;
20154;SDS011;10238;49.556;10.956;2023-04-15T08:07:10;3.60;;;3.28;;
20154;SDS011;10238;49.556;10.956;2023-04-15T08:10:05;4.20;;;3.80;;
20154;SDS011;10238;49.556;10.956;2023-04-15T08:13:07;4.55;;;3.47;;
20154;SDS011;10238;49.556;10.956;2023-04-15T08:19:16;3.55;;;3.25;;
20154;SDS011;10238;49.556;10.956;2023-04-15T08:22:05;3.90;;;2.95;;
20154;SDS011;10238;49.556;10.956;2023-04-15T08:25:03;3.33;;;3.00;;
20154;SDS011;10238;49.556;10.956;2023-04-15T08:28:02;3.03;;;2.83;;
20154;SDS011;10238;49.556;10.956;2023-04-15T08:30:59;2.75;;;2.33;;
20154;SDS011;10238;49.556;10.956;2023-04-15T08:33:49;3.40;;;2.28;;
20154;SDS011;10238;49.556;10.956;2023-04-15T08:36:44;4.13;;;2.10;;
20154;SDS011;10238;49.556;10.956;2023-04-15T08:39:34;2.63;;;1.95;;
20154;SDS011;10238;49.556;10.956;2023-04-15T08:42:48;2.35;;;1.90;;
20154;SDS011;10238;49.556;10.956;2023-04-15T08:45:54;3.38;;;2.03;;
20154;SDS011;10238;49.556;10.956;2023-04-15T08:49:09;2.20;;;2.00;;
20154;SDS011;10238;49.556;10.956;2023-04-15T08:52:18;2.35;;;2.00;;
20154;SDS011;10238;49.556;10.956;2023-04-15T08:55:23;2.05;;;1.95;;
20154;SDS011;10238;49.556;10.956;2023-04-15T08:58:21;2.35;;;2.15;;
20154;SDS011;10238;49.556;10.956;2023-04-15T09:01:53;1.95;;;1.85;;
20154;SDS011;10238;49.556;10.956;2023-04-15T09:05:14;2.63;;;1.90;;
20154;SDS011;10238;49.556;10.956;2023-04-15T09:08:08;2.40;;;1.70;;
20154;SDS011;10238;49.556;10.956;2023-04-15T09:11:02;1.88;;;1.77;;
20154;SDS011;10238;49.556;10.956;2023-04-15T09:14:10;2.53;;;1.92;;
20154;SDS011;10238;49.556;10.956;2023-04-15T09:17:19;1.80;;;1.70;;
20154;SDS011;10238;49.556;10.956;2023-04-15T09:20:28;2.55;;;1.90;;
20154;SDS011;10238;49.556;10.956;2023-04-15T09:23:25;1.70;;;1.60;;
20154;SDS011;10238;49.556;10.956;2023-04-15T09:26:45;2.30;;;2.10;;
20154;SDS011;10238;49.556;10.956;2023-04-15T09:29:51;2.97;;;1.90;;
20154;SDS011;10238;49.556;10.956;2023-04-15T09:32:48;2.10;;;1.90;;
20154;SDS011;10238;49.556;10.956;2023-04-15T09:35:38;2.03;;;1.80;;
20154;SDS011;10238;49.556;10.956;2023-04-15T09:38:53;1.83;;;1.73;;
20154;SDS011;10238;49.556;10.956;2023-04-15T09:42:17;2.20;;;2.00;;
20154;SDS011;10238;49.556;10.956;2023-04-15T09:45:15;2.25;;;2.15;;
20154;SDS011;10238;49.556;10.956;2023-04-15T09:48:36;2.92;;;2.08;;
20154;SDS011;10238;49.556;10.956;2023-04-15T09:51:33;2.67;;;2.45;;
20154;SDS011;10238;49.556;10.956;2023-04-15T09:54:55;3.65;;;2.97;;
20154;SDS011;10238;49.556;10.956;2023-04-15T09:57:51;3.00;;;2.80;;
20154;SDS011;10238;49.556;10.956;2023-04-15T10:00:50;2.80;;;2.58;;
20154;SDS011;10238;49.556;10.956;2023-04-15T10:03:49;2.40;;;2.20;;
20154;SDS011;10238;49.556;10.956;2023-04-15T10:07:03;2.80;;;2.60;;
20154;SDS011;10238;49.556;10.956;2023-04-15T10:10:16;2.85;;;2.65;;
20154;SDS011;10238;49.556;10.956;2023-04-15T10:16:41;3.03;;;2.83;;
20154;SDS011;10238;49.556;10.956;2023-04-15T10:20:02;2.30;;;2.20;;
20154;SDS011;10238;49.556;10.956;2023-04-15T10:23:00;4.85;;;2.40;;
20154;SDS011;10238;49.556;10.956;2023-04-15T10:26:06;2.20;;;2.10;;
20154;SDS011;10238;49.556;10.956;2023-04-15T10:29:12;2.67;;;2.47;;
20154;SDS011;10238;49.556;10.956;2023-04-15T10:32:13;2.65;;;2.45;;
20154;SDS011;10238;49.556;10.956;2023-04-15T10:41:41;3.22;;;2.65;;
20154;SDS011;10238;49.556;10.956;2023-04-15T10:44:47;2.60;;;2.40;;
20154;SDS011;10238;49.556;10.956;2023-04-15T10:48:08;3.13;;;2.83;;
20154;SDS011;10238;49.556;10.956;2023-04-15T10:51:27;2.95;;;2.60;;
20154;SDS011;10238;49.556;10.956;2023-04-15T10:54:31;2.53;;;2.33;;
20154;SDS011;10238;49.556;10.956;2023-04-15T10:57:38;4.65;;;4.35;;
20154;SDS011;10238;49.556;10.956;2023-04-15T11:00:32;4.30;;;4.00;;
20154;SDS011;10238;49.556;10.956;2023-04-15T11:03:37;3.85;;;3.65;;
20154;SDS011;10238;49.556;10.956;2023-04-15T11:06:42;2.42;;;2.22;;
20154;SDS011;10238;49.556;10.956;2023-04-15T11:09:32;2.92;;;2.55;;
20154;SDS011;10238;49.556;10.956;2023-04-15T11:12:38;3.22;;;2.55;;
20154;SDS011;10238;49.556;10.956;2023-04-15T11:15:28;2.08;;;1.98;;
20154;SDS011;10238;49.556;10.956;2023-04-15T11:18:39;2.70;;;2.50;;
20154;SDS011;10238;49.556;10.956;2023-04-15T11:21:29;4.20;;;3.80;;
20154;SDS011;10238;49.556;10.956;2023-04-15T11:24:24;4.40;;;4.20;;
20154;SDS011;10238;49.556;10.956;2023-04-15T11:27:25;6.15;;;5.75;;
20154;SDS011;10238;49.556;10.956;2023-04-15T11:30:30;7.55;;;7.25;;
20154;SDS011;10238;49.556;10.956;2023-04-15T11:33:34;6.45;;;6.15;;
20154;SDS011;10238;49.556;10.956;2023-04-15T11:36:42;7.43;;;7.03;;
20154;SDS011;10238;49.556;10.956;2023-04-15T11:39:54;4.50;;;4.20;;
20154;SDS011;10238;49.556;10.956;2023-04-15T11:46:37;2.58;;;2.42;;
20154;SDS011;10238;49.556;10.956;2023-04-15T11:49:44;2.35;;;2.15;;
20154;SDS011;10238;49.556;10.956;2023-04-15T11:52:42;1.98;;;1.88;;
20154;SDS011;10238;49.556;10.956;2023-04-15T11:55:53;2.45;;;2.35;;
20154;SDS011;10238;49.556;10.956;2023-04-15T11:59:04;3.05;;;2.85;;
20154;SDS011;10238;49.556;10.956;2023-04-15T12:02:12;3.10;;;2.90;;
20154;SDS011;10238;49.556;10.956;2023-04-15T12:05:35;3.15;;;3.05;;
20154;SDS011;10238;49.556;10.956;2023-04-15T12:09:30;3.20;;;3.10;;
20154;SDS011;10238;49.556;10.956;2023-04-15T12:12:36;3.13;;;2.95;;
20154;SDS011;10238;49.556;10.956;2023-04-15T12:15:42;3.30;;;3.10;;
20154;SDS011;10238;49.556;10.956;2023-04-15T12:19:06;2.63;;;2.53;;
20154;SDS011;10238;49.556;10.956;2023-04-15T12:22:14;2.70;;;2.55;;
20154;SDS011;10238;49.556;10.956;2023-04-15T12:25:31;2.95;;;2.67;;
20154;SDS011;10238;49.556;10.956;2023-04-15T12:28:47;2.70;;;2.50;;
20154;SDS011;10238;49.556;10.956;2023-04-15T12:32:18;2.33;;;2.22;;
20154;SDS011;10238;49.556;10.956;2023-04-15T12:35:43;2.88;;;2.40;;
20154;SDS011;10238;49.556;10.956;2023-04-15T12:39:09;3.70;;;3.40;;
20154;SDS011;10238;49.556;10.956;2023-04-15T12:43:10;2.45;;;2.25;;
20154;SDS011;10238;49.556;10.956;2023-04-15T12:46:24;3.10;;;2.90;;
20154;SDS011;10238;49.556;10.956;2023-04-15T12:49:35;2.65;;;2.45;;
20154;SDS011;10238;49.556;10.956;2023-04-15T12:52:37;2.65;;;2.45;;
20154;SDS011;10238;49.556;10.956;2023-04-15T12:56:01;3.90;;;3.50;;
20154;SDS011;10238;49.556;10.956;2023-04-15T12:59:13;4.90;;;4.60;;
20154;SDS011;10238;49.556;10.956;2023-04-15T13:02:19;5.00;;;4.80;;
20154;SDS011;10238;49.556;10.956;2023-04-15T13:05:23;5.87;;;5.57;;
20154;SDS011;10238;49.556;10.956;2023-04-15T13:08:21;4.15;;;3.95;;
20154;SDS011;10238;49.556;10.956;2023-04-15T13:11:55;4.78;;;4.47;;
20154;SDS011;10238;49.556;10.956;2023-04-15T13:15:05;4.03;;;3.83;;
20154;SDS011;10238;49.556;10.956;2023-04-15T13:18:02;4.28;;;4.07;;
20154;SDS011;10238;49.556;10.956;2023-04-15T13:21:09;6.35;;;6.05;;
20154;SDS011;10238;49.556;10.956;2023-04-15T13:24:07;6.13;;;5.82;;
20154;SDS011;10238;49.556;10.956;2023-04-15T13:27:00;6.57;;;6.28;;
20154;SDS011;10238;49.556;10.956;2023-04-15T13:30:02;7.40;;;7.00;;
20154;SDS011;10238;49.556;10.956;2023-04-15T13:33:28;8.63;;;8.25;;
20154;SDS011;10238;49.556;10.956;2023-04-15T13:36:26;8.35;;;8.05;;
20154;SDS011;10238;49.556;10.956;2023-04-15T13:39:21;9.50;;;9.10;;
20154;SDS011;10238;49.556;10.956;2023-04-15T13:42:23;7.40;;;7.10;;
20154;SDS011;10238;49.556;10.956;2023-04-15T13:45:26;5.60;;;5.32;;
20154;SDS011;10238;49.556;10.956;2023-04-15T13:48:19;5.43;;;5.13;;
20154;SDS011;10238;49.556;10.956;2023-04-15T13:51:23;4.82;;;4.60;;
20154;SDS011;10238;49.556;10.956;2023-04-15T13:54:27;4.65;;;4.45;;
20154;SDS011;10238;49.556;10.956;2023-04-15T13:57:31;4.85;;;4.65;;
20154;SDS011;10238;49.556;10.956;2023-04-15T14:00:33;5.47;;;5.18;;
20154;SDS011;10238;49.556;10.956;2023-04-15T14:03:30;5.50;;;5.30;;
20154;SDS011;10238;49.556;10.956;2023-04-15T14:06:32;5.78;;;5.38;;
20154;SDS011;10238;49.556;10.956;2023-04-15T14:09:37;5.25;;;5.05;;
20154;SDS011;10238;49.556;10.956;2023-04-15T14:15:53;5.40;;;5.10;;
20154;SDS011;10238;49.556;10.956;2023-04-15T14:18:43;5.20;;;5.00;;
20154;SDS011;10238;49.556;10.956;2023-04-15T14:21:32;5.00;;;4.80;;
20154;SDS011;10238;49.556;10.956;2023-04-15T14:24:29;4.15;;;4.03;;
20154;SDS011;10238;49.556;10.956;2023-04-15T14:27:18;5.85;;;5.65;;
20154;SDS011;10238;49.556;10.956;2023-04-15T14:30:15;4.22;;;4.03;;
20154;SDS011;10238;49.556;10.956;2023-04-15T14:33:14;4.07;;;3.78;;
20154;SDS011;10238;49.556;10.956;2023-04-15T14:36:06;4.68;;;4.38;;
20154;SDS011;10238;49.556;10.956;2023-04-15T14:38:59;4.18;;;3.88;;
20154;SDS011;10238;49.556;10.956;2023-04-15T14:42:00;4.07;;;3.88;;
20154;SDS011;10238;49.556;10.956;2023-04-15T14:44:57;4.80;;;4.60;;
20154;SDS011;10238;49.556;10.956;2023-04-15T14:47:51;6.50;;;6.20;;
20154;SDS011;10238;49.556;10.956;2023-04-15T14:50:56;5.68;;;5.43;;
20154;SDS011;10238;49.556;10.956;2023-04-15T14:53:48;6.63;;;6.38;;
20154;SDS011;10238;49.556;10.956;2023-04-15T14:56:45;7.07;;;6.78;;
20154;SDS011;10238;49.556;10.956;2023-04-15T14:59:43;7.28;;;6.97;;
20154;SDS011;10238;49.556;10.956;2023-04-15T15:02:45;7.28;;;6.97;;
20154;SDS011;10238;49.556;10.956;2023-04-15T15:05:57;7.27;;;6.97;;
20154;SDS011;10238;49.556;10.956;2023-04-15T15:08:56;6.78;;;6.50;;
20154;SDS011;10238;49.556;10.956;2023-04-15T15:11:54;7.28;;;6.97;;
20154;SDS011;10238;49.556;10.956;2023-04-15T15:14:55;5.78;;;5.47;;
20154;SDS011;10238;49.556;10.956;2023-04-15T15:18:18;4.65;;;4.50;;
20154;SDS011;10238;49.556;10.956;2023-04-15T15:21:28;3.42;;;3.22;;
20154;SDS011;10238;49.556;10.956;2023-04-15T15:24:39;2.15;;;2.05;;
20154;SDS011;10238;49.556;10.956;2023-04-15T15:27:28;2.00;;;1.90;;
20154;SDS011;10238;49.556;10.956;2023-04-15T15:30:54;1.73;;;1.63;;
20154;SDS011;10238;49.556;10.956;2023-04-15T15:33:51;2.00;;;1.75;;
20154;SDS011;10238;49.556;10.956;2023-04-15T15:37:07;1.83;;;1.73;;
20154;SDS011;10238;49.556;10.956;2023-04-15T15:40:16;2.80;;;2.70;;
20154;SDS011;10238;49.556;10.956;2023-04-15T15:43:17;2.00;;;1.90;;
20154;SDS011;10238;49.556;10.956;2023-04-15T15:46:11;4.72;;;4.53;;
20154;SDS011;10238;49.556;10.956;2023-04-15T15:49:06;7.93;;;7.43;;
20154;SDS011;10238;49.556;10.956;2023-04-15T15:52:07;5.65;;;5.35;;
20154;SDS011;10238;49.556;10.956;2023-04-15T15:55:11;4.55;;;4.18;;
20154;SDS011;10238;49.556;10.956;2023-04-15T15:58:04;3.58;;;3.28;;
20154;SDS011;10238;49.556;10.956;2023-04-15T16:00:55;2.90;;;2.70;;
20154;SDS011;10238;49.556;10.956;2023-04-15T16:03:52;3.15;;;2.28;;
20154;SDS011;10238;49.556;10.956;2023-04-15T16:06:48;2.35;;;2.20;;
20154;SDS011;10238;49.556;10.956;2023-04-15T16:09:45;2.22;;;2.05;;
20154;SDS011;10238;49.556;10.956;2023-04-15T16:12:40;2.23;;;2.07;;
20154;SDS011;10238;49.556;10.956;2023-04-15T16:15:49;2.20;;;2.00;;
20154;SDS011;10238;49.556;10.956;2023-04-15T16:18:56;1.98;;;1.80;;
20154;SDS011;10238;49.556;10.956;2023-04-15T16:21:55;3.00;;;1.88;;
20154;SDS011;10238;49.556;10.956;2023-04-15T16:24:57;2.00;;;1.90;;
20154;SDS011;10238;49.556;10.956;2023-04-15T16:27:57;2.80;;;1.90;;
20154;SDS011;10238;49.556;10.956;2023-04-15T16:31:16;1.95;;;1.85;;
20154;SDS011;10238;49.556;10.956;2023-04-15T16:34:11;1.80;;;1.70;;
20154;SDS011;10238;49.556;10.956;2023-04-15T16:37:07;1.92;;;1.83;;
20154;SDS011;10238;49.556;10.956;2023-04-15T16:40:06;2.83;;;1.90;;
20154;SDS011;10238;49.556;10.956;2023-04-15T16:43:12;2.20;;;2.00;;
20154;SDS011;10238;49.556;10.956;2023-04-15T16:46:12;3.00;;;2.45;;
20154;SDS011;10238;49.556;10.956;2023-04-15T16:49:10;3.22;;;2.72;;
20154;SDS011;10238;49.556;10.956;2023-04-15T16:52:09;2.53;;;2.33;;
20154;SDS011;10238;49.556;10.956;2023-04-15T16:55:29;2.53;;;2.33;;
20154;SDS011;10238;49.556;10.956;2023-04-15T16:58:33;2.72;;;2.53;;
20154;SDS011;10238;49.556;10.956;2023-04-15T17:04:38;2.90;;;2.60;;
20154;SDS011;10238;49.556;10.956;2023-04-15T17:07:40;2.53;;;2.33;;
20154;SDS011;10238;49.556;10.956;2023-04-15T17:10:44;2.80;;;2.60;;
20154;SDS011;10238;49.556;10.956;2023-04-15T17:13:36;3.05;;;2.67;;
20154;SDS011;10238;49.556;10.956;2023-04-15T17:16:42;2.40;;;2.20;;
20154;SDS011;10238;49.556;10.956;2023-04-15T17:19:59;2.97;;;2.50;;
20154;SDS011;10238;49.556;10.956;2023-04-15T17:22:58;2.65;;;2.45;;
20154;SDS011;10238;49.556;10.956;2023-04-15T17:25:47;4.35;;;3.95;;
20154;SDS011;10238;49.556;10.956;2023-04-15T17:28:49;5.78;;;5.13;;
20154;SDS011;10238;49.556;10.956;2023-04-15T17:31:37;6.22;;;5.63;;
20154;SDS011;10238;49.556;10.956;2023-04-15T17:34:40;6.90;;;6.30;;
20154;SDS011;10238;49.556;10.956;2023-04-15T17:37:41;6.10;;;5.60;;
20154;SDS011;10238;49.556;10.956;2023-04-15T17:41:04;5.60;;;5.10;;
20154;SDS011;10238;49.556;10.956;2023-04-15T17:44:03;5.13;;;4.63;;
20154;SDS011;10238;49.556;10.956;2023-04-15T17:46:52;4.40;;;4.10;;
20154;SDS011;10238;49.556;10.956;2023-04-15T17:49:40;5.13;;;4.72;;
20154;SDS011;10238;49.556;10.956;2023-04-15T17:52:34;4.75;;;4.45;;
20154;SDS011;10238;49.556;10.956;2023-04-15T17:55:35;4.60;;;4.30;;
20154;SDS011;10238;49.556;10.956;2023-04-15T17:58:32;4.18;;;3.97;;
20154;SDS011;10238;49.556;10.956;2023-04-15T18:01:37;4.10;;;3.80;;
20154;SDS011;10238;49.556;10.956;2023-04-15T18:04:34;3.50;;;3.30;;
20154;SDS011;10238;49.556;10.956;2023-04-15T18:07:26;3.30;;;3.00;;
20154;SDS011;10238;49.556;10.956;2023-04-15T18:10:25;2.78;;;2.65;;
20154;SDS011;10238;49.556;10.956;2023-04-15T18:13:16;3.30;;;3.00;;
20154;SDS011;10238;49.556;10.956;2023-04-15T18:16:14;2.78;;;2.50;;
20154;SDS011;10238;49.556;10.956;2023-04-15T18:19:13;2.70;;;2.50;;
20154;SDS011;10238;49.556;10.956;2023-04-15T18:22:06;2.33;;;2.10;;